Time;durP1;ratioP1;P1;durP2;ratioP2;P2;SDS_P1;SDS_P2;PMS_P1;PMS_P2;Temp;Humidity;BMP_temperature;BMP_pressure;BME280_temperature;BME280_humidity;BME280_pressure;Samples;Min_cycle;Max_cycle;Signal;HPM_P1;HPM_P2
2022/05/05 00:01:41;;;;;;;16.85;5.80;;;7.40;99.90;;;;;;5051210;28;20041;-72
2022/05/05 00:04:08;;;;;;;10.55;5.70;;;7.40;99.90;;;;;;5052518;28;20052;-72
2022/05/05 00:06:34;;;;;;;14.60;6.65;;;7.50;99.90;;;;;;5052551;28;20079;-72
2022/05/05 00:09:00;;;;;;;13.38;6.05;;;7.50;99.90;;;;;;5051036;28;20041;-72
2022/05/05 00:14:31;;;;;;;8.93;4.25;;;7.50;99.90;;;;;;5052267;28;20048;-72
2022/05/05 00:17:08;;;;;;;7.82;3.90;;;7.50;99.90;;;;;;5051810;28;20049;-72
2022/05/05 00:19:37;;;;;;;6.63;3.70;;;7.60;99.90;;;;;;5048570;28;20068;-72
2022/05/05 00:22:04;;;;;;;7.85;3.65;;;7.60;99.90;;;;;;5048835;28;20041;-72
2022/05/05 00:24:30;;;;;;;6.50;3.63;;;7.50;99.90;;;;;;5032322;28;20553;-72
2022/05/05 00:26:56;;;;;;;8.48;4.25;;;7.40;99.90;;;;;;5048988;28;20428;-72
2022/05/05 00:29:22;;;;;;;8.48;3.78;;;7.40;99.90;;;;;;5050692;28;20037;-72
2022/05/05 00:31:49;;;;;;;8.63;4.20;;;7.40;99.90;;;;;;5051907;28;20094;-72
2022/05/05 00:34:15;;;;;;;7.75;4.03;;;7.30;99.90;;;;;;5050590;28;20136;-72
2022/05/05 00:36:40;;;;;;;7.78;3.75;;;7.20;99.90;;;;;;5050947;28;20136;-72
2022/05/05 00:39:07;;;;;;;7.45;3.72;;;7.10;99.90;;;;;;5051729;28;20041;-72
2022/05/05 00:41:39;;;;;;;7.50;3.90;;;7.10;99.90;;;;;;5048173;28;20098;-72
2022/05/05 00:44:06;;;;;;;7.25;3.50;;;7.10;99.90;;;;;;5068443;28;20477;-72
2022/05/05 00:46:32;;;;;;;6.72;3.75;;;7.20;99.90;;;;;;5051193;28;20044;-72
2022/05/05 00:48:59;;;;;;;8.30;4.05;;;7.20;99.90;;;;;;5050759;28;20073;-72
2022/05/05 00:51:24;;;;;;;9.07;4.07;;;7.10;99.90;;;;;;5051691;28;20091;-72
2022/05/05 00:53:50;;;;;;;8.10;4.10;;;7.10;99.90;;;;;;5050680;28;20040;-72
2022/05/05 00:56:16;;;;;;;8.35;4.30;;;7.10;99.90;;;;;;5051951;28;20052;-72
2022/05/05 00:58:46;;;;;;;8.75;4.57;;;7.00;99.90;;;;;;5050791;28;20036;-72
2022/05/05 01:01:17;;;;;;;6.97;4.28;;;7.00;99.90;;;;;;5050235;28;20044;-72
2022/05/05 01:03:43;;;;;;;8.77;4.50;;;7.10;99.90;;;;;;5051874;28;20520;-72
2022/05/05 01:06:08;;;;;;;8.30;4.30;;;7.00;99.90;;;;;;5068590;28;20040;-72
2022/05/05 01:08:35;;;;;;;9.00;4.40;;;6.90;99.90;;;;;;5050408;28;20068;-72
2022/05/05 01:11:01;;;;;;;8.82;4.28;;;6.70;99.90;;;;;;5051840;28;20397;-72
2022/05/05 01:13:27;;;;;;;9.30;4.75;;;6.60;99.90;;;;;;5050709;28;20134;-72
2022/05/05 01:15:55;;;;;;;9.27;4.68;;;6.60;99.90;;;;;;5034868;28;20041;-72
2022/05/05 01:18:21;;;;;;;9.32;4.55;;;6.60;99.90;;;;;;5034021;28;20497;-72
2022/05/05 01:20:50;;;;;;;9.35;5.00;;;6.60;99.90;;;;;;5051573;28;20195;-72
2022/05/05 01:23:16;;;;;;;9.13;5.15;;;6.70;99.90;;;;;;5051492;28;20041;-72
2022/05/05 01:28:30;;;;;;;11.18;5.82;;;6.60;99.90;;;;;;5050397;28;20040;-72
2022/05/05 01:30:57;;;;;;;12.93;5.55;;;6.60;99.90;;;;;;5036922;28;20041;-72
2022/05/05 01:33:25;;;;;;;11.45;5.60;;;6.60;99.90;;;;;;5055135;28;20073;-72
2022/05/05 01:35:53;;;;;;;11.52;5.75;;;6.60;99.90;;;;;;5055100;28;20052;-72
2022/05/05 01:38:20;;;;;;;11.85;5.90;;;6.70;99.90;;;;;;5037550;28;20107;-72
2022/05/05 01:40:46;;;;;;;12.02;6.60;;;6.80;99.90;;;;;;5054929;28;20505;-72
2022/05/05 01:43:21;;;;;;;13.60;6.60;;;6.80;99.90;;;;;;5055014;28;20051;-72
2022/05/05 01:45:47;;;;;;;13.15;6.35;;;6.80;99.90;;;;;;5054973;28;20051;-72
2022/05/05 01:48:14;;;;;;;10.25;5.22;;;6.80;99.90;;;;;;5053756;28;20044;-72
2022/05/05 01:50:39;;;;;;;8.45;4.97;;;6.80;99.90;;;;;;5053575;28;20043;-72
2022/05/05 01:53:06;;;;;;;9.95;4.72;;;6.80;99.90;;;;;;5053915;28;20409;-72
2022/05/05 01:55:33;;;;;;;9.43;5.10;;;6.80;99.90;;;;;;5038404;28;20048;-72
2022/05/05 01:58:00;;;;;;;8.50;4.80;;;6.90;99.90;;;;;;5037228;28;20500;-72
2022/05/05 02:00:26;;;;;;;10.57;4.95;;;6.90;99.90;;;;;;5054752;28;20439;-72
2022/05/05 02:02:52;;;;;;;8.32;4.72;;;6.90;99.90;;;;;;5071727;28;20124;-72
2022/05/05 02:05:19;;;;;;;10.10;5.35;;;6.80;99.90;;;;;;5054633;28;20033;-72
2022/05/05 02:07:45;;;;;;;8.63;4.95;;;6.90;99.90;;;;;;5053496;28;20100;-72
2022/05/05 02:10:14;;;;;;;9.55;5.50;;;6.90;99.90;;;;;;5035344;28;20374;-72
2022/05/05 02:12:40;;;;;;;9.60;4.82;;;6.90;99.90;;;;;;5051991;28;20034;-72
2022/05/05 02:15:08;;;;;;;8.25;4.68;;;6.80;99.90;;;;;;5036927;28;20116;-72
2022/05/05 02:17:37;;;;;;;9.52;5.25;;;6.80;99.90;;;;;;5053565;28;20393;-72
2022/05/05 02:20:05;;;;;;;10.32;5.35;;;6.80;99.90;;;;;;5063153;28;20041;-72
2022/05/05 02:22:31;;;;;;;11.27;5.47;;;6.80;99.90;;;;;;5035644;28;20025;-72
2022/05/05 02:24:57;;;;;;;7.88;4.70;;;6.80;99.90;;;;;;5054125;28;20103;-72
2022/05/05 02:27:23;;;;;;;9.73;5.10;;;6.80;99.90;;;;;;5037483;28;20068;-72
2022/05/05 02:29:49;;;;;;;9.82;5.57;;;6.70;99.90;;;;;;5055206;28;20036;-72
2022/05/05 02:32:16;;;;;;;10.00;5.80;;;6.60;99.90;;;;;;5057466;28;20037;-72
2022/05/05 02:34:42;;;;;;;7.25;4.72;;;6.50;99.90;;;;;;5057428;28;20055;-72
2022/05/05 02:39:52;;;;;;;11.10;4.88;;;6.60;99.90;;;;;;5052353;28;20040;-72
2022/05/05 02:42:18;;;;;;;11.43;5.53;;;6.60;99.90;;;;;;5051561;28;20529;-72
2022/05/05 02:44:44;;;;;;;9.73;5.03;;;6.60;99.90;;;;;;5035170;28;20091;-72
2022/05/05 02:47:10;;;;;;;11.93;5.25;;;6.60;99.90;;;;;;5035382;28;20029;-72
2022/05/05 02:49:36;;;;;;;10.13;5.28;;;6.60;99.90;;;;;;5051714;28;20040;-72
2022/05/05 02:52:03;;;;;;;9.18;4.97;;;6.70;99.90;;;;;;5052548;28;20037;-72
2022/05/05 02:54:47;;;;;;;10.65;5.53;;;6.70;99.90;;;;;;5036737;28;20037;-72
2022/05/05 02:57:15;;;;;;;10.95;6.20;;;6.70;99.90;;;;;;5033764;28;20048;-72
2022/05/05 02:59:41;;;;;;;10.57;5.22;;;6.70;99.90;;;;;;5052614;28;20060;-72
2022/05/05 03:02:07;;;;;;;9.15;4.57;;;6.70;99.90;;;;;;5050829;28;20037;-72
2022/05/05 03:04:33;;;;;;;11.75;5.20;;;6.60;99.90;;;;;;5036405;28;20043;-72
2022/05/05 03:06:59;;;;;;;11.38;5.57;;;6.60;99.90;;;;;;5052751;28;20077;-72
2022/05/05 03:09:25;;;;;;;11.68;5.65;;;6.70;99.90;;;;;;5035178;28;20073;-72
2022/05/05 03:11:51;;;;;;;10.80;5.70;;;6.70;99.90;;;;;;5050907;28;20045;-72
2022/05/05 03:14:16;;;;;;;10.18;6.10;;;6.70;99.90;;;;;;5068340;28;20469;-72
2022/05/05 03:16:42;;;;;;;7.82;4.65;;;6.60;99.90;;;;;;5050207;28;20037;-72
2022/05/05 03:19:07;;;;;;;7.78;4.50;;;6.60;99.90;;;;;;5063293;28;20047;-72
2022/05/05 03:21:33;;;;;;;10.60;5.28;;;6.70;99.90;;;;;;5073138;28;20040;-72
2022/05/05 03:23:59;;;;;;;9.45;5.25;;;6.80;99.90;;;;;;5056144;28;20124;-72
2022/05/05 03:26:25;;;;;;;7.85;4.93;;;6.80;99.90;;;;;;5051791;28;20047;-72
2022/05/05 03:28:50;;;;;;;11.50;5.50;;;6.80;99.90;;;;;;5034607;28;20122;-72
2022/05/05 03:31:16;;;;;;;8.88;5.07;;;6.80;99.90;;;;;;5051790;28;20128;-72
2022/05/05 03:33:42;;;;;;;8.90;5.35;;;6.70;99.90;;;;;;5056066;28;20036;-71
2022/05/05 03:36:07;;;;;;;9.68;5.18;;;6.80;99.90;;;;;;5049416;28;20041;-72
2022/05/05 03:38:33;;;;;;;8.05;4.70;;;6.80;99.90;;;;;;5035390;28;20044;-72
2022/05/05 03:40:59;;;;;;;9.77;4.75;;;6.80;99.90;;;;;;5051659;28;20041;-72
2022/05/05 03:43:24;;;;;;;9.90;5.32;;;6.70;99.90;;;;;;5051562;28;20060;-72
2022/05/05 03:45:50;;;;;;;8.82;5.70;;;6.70;99.90;;;;;;5034865;28;20029;-72
2022/05/05 03:48:15;;;;;;;8.88;5.05;;;6.70;99.90;;;;;;5034298;28;20043;-72
2022/05/05 03:50:41;;;;;;;9.23;5.05;;;6.70;99.90;;;;;;5033712;28;20041;-72
2022/05/05 03:53:06;;;;;;;9.32;5.05;;;6.70;99.90;;;;;;5051373;28;20048;-72
2022/05/05 03:55:32;;;;;;;10.07;5.90;;;6.70;99.90;;;;;;5035044;28;20049;-72
2022/05/05 03:57:58;;;;;;;8.13;5.78;;;6.70;99.90;;;;;;5050787;28;20408;-72
2022/05/05 04:00:26;;;;;;;9.68;5.80;;;6.70;99.90;;;;;;5034731;28;20127;-72
2022/05/05 04:05:36;;;;;;;11.05;6.13;;;6.80;99.90;;;;;;5050009;28;20493;-72
2022/05/05 04:08:03;;;;;;;8.90;5.70;;;6.80;99.90;;;;;;5051689;28;20116;-72
2022/05/05 04:10:29;;;;;;;10.63;6.68;;;6.80;99.90;;;;;;5050276;28;20087;-72
2022/05/05 04:12:55;;;;;;;9.77;6.47;;;6.80;99.90;;;;;;5049835;28;20045;-72
2022/05/05 04:15:21;;;;;;;11.45;7.13;;;6.70;99.90;;;;;;5050855;28;20036;-72
2022/05/05 04:17:47;;;;;;;9.57;6.88;;;6.70;99.90;;;;;;5052270;28;20401;-72
2022/05/05 04:20:12;;;;;;;9.27;6.28;;;6.70;99.90;;;;;;5031769;28;20051;-72
2022/05/05 04:22:38;;;;;;;10.43;7.65;;;6.70;99.90;;;;;;5050916;28;20029;-72
2022/05/05 04:25:05;;;;;;;12.07;7.88;;;6.70;99.90;;;;;;5059756;28;20032;-72
2022/05/05 04:27:31;;;;;;;10.98;7.05;;;6.70;99.90;;;;;;5038070;28;20076;-72
2022/05/05 04:29:57;;;;;;;10.20;5.95;;;6.70;99.90;;;;;;5066037;28;20040;-72
2022/05/05 04:32:22;;;;;;;10.43;6.45;;;6.70;99.90;;;;;;5050762;28;20087;-72
2022/05/05 04:34:48;;;;;;;11.27;6.70;;;6.70;99.90;;;;;;5050369;28;20061;-72
2022/05/05 04:37:14;;;;;;;10.98;6.32;;;6.70;99.90;;;;;;5064355;28;20041;-72
2022/05/05 04:39:42;;;;;;;11.07;7.18;;;6.70;99.90;;;;;;5055245;28;20036;-72
2022/05/05 04:42:08;;;;;;;11.00;6.55;;;6.70;99.90;;;;;;5034463;28;20044;-72
2022/05/05 04:44:34;;;;;;;12.93;7.18;;;6.80;99.90;;;;;;5035317;28;20116;-72
2022/05/05 04:47:01;;;;;;;10.75;6.55;;;6.90;99.90;;;;;;5049977;28;20166;-72
2022/05/05 04:49:26;;;;;;;12.68;6.55;;;6.90;99.90;;;;;;5035191;28;20102;-72
2022/05/05 04:51:52;;;;;;;11.73;7.30;;;6.90;99.90;;;;;;5033482;28;20045;-72
2022/05/05 04:54:17;;;;;;;13.90;7.30;;;6.90;99.90;;;;;;5049838;28;20033;-72
2022/05/05 04:56:43;;;;;;;12.60;7.32;;;6.90;99.90;;;;;;5051744;28;20041;-72
2022/05/05 04:59:09;;;;;;;13.60;7.93;;;6.90;99.90;;;;;;5049682;28;20041;-72
2022/05/05 05:01:34;;;;;;;12.18;7.40;;;6.90;99.90;;;;;;5065592;28;20037;-72
2022/05/05 05:04:02;;;;;;;12.45;7.88;;;6.90;99.90;;;;;;5052809;28;20497;-72
2022/05/05 05:06:28;;;;;;;11.63;7.25;;;6.90;99.90;;;;;;5055974;28;20407;-72
2022/05/05 05:08:55;;;;;;;12.50;7.72;;;7.00;99.90;;;;;;5038337;28;20037;-72
2022/05/05 05:11:21;;;;;;;14.75;7.65;;;7.00;99.90;;;;;;5054721;28;20455;-72
2022/05/05 05:13:46;;;;;;;13.27;8.20;;;7.00;99.90;;;;;;5071186;28;20052;-72
2022/05/05 05:16:12;;;;;;;13.02;7.95;;;7.10;99.90;;;;;;5053869;28;20041;-72
2022/05/05 05:18:38;;;;;;;15.60;8.98;;;7.10;99.90;;;;;;5053628;28;20033;-72
2022/05/05 05:21:04;;;;;;;13.85;8.35;;;7.20;99.90;;;;;;5054413;28;20431;-72
2022/05/05 05:23:29;;;;;;;15.07;8.80;;;7.20;99.90;;;;;;5053104;28;20447;-72
2022/05/05 05:25:55;;;;;;;14.27;8.45;;;7.30;99.90;;;;;;5069828;28;20060;-72
2022/05/05 05:28:21;;;;;;;12.35;8.02;;;7.30;99.90;;;;;;5066911;28;20119;-72
2022/05/05 05:30:46;;;;;;;15.23;8.95;;;7.40;99.90;;;;;;5054312;28;20571;-72
2022/05/05 05:33:12;;;;;;;13.00;8.40;;;7.40;99.90;;;;;;5054435;28;20056;-72
2022/05/05 05:35:37;;;;;;;12.90;8.82;;;7.50;99.90;;;;;;5054069;28;20146;-72
2022/05/05 05:38:05;;;;;;;15.85;10.07;;;7.50;99.90;;;;;;5035724;28;20037;-72
2022/05/05 05:40:31;;;;;;;16.60;9.82;;;7.50;99.90;;;;;;5052672;28;20037;-72
2022/05/05 05:42:57;;;;;;;14.95;9.02;;;7.60;99.90;;;;;;5054288;28;20037;-72
2022/05/05 05:45:23;;;;;;;13.73;9.18;;;7.60;99.90;;;;;;5054405;28;20055;-72
2022/05/05 05:47:49;;;;;;;12.35;8.20;;;7.70;99.90;;;;;;5071509;28;20052;-72
2022/05/05 05:50:14;;;;;;;13.05;8.23;;;7.70;99.90;;;;;;5053670;28;20433;-72
2022/05/05 05:52:40;;;;;;;13.93;8.70;;;7.90;99.90;;;;;;5053241;28;20100;-72
2022/05/05 05:55:06;;;;;;;16.27;9.32;;;8.10;99.90;;;;;;5040210;28;20047;-72
2022/05/05 05:57:31;;;;;;;12.32;8.52;;;8.20;99.90;;;;;;5082803;28;20041;-72
2022/05/05 05:59:57;;;;;;;12.82;8.75;;;8.20;99.90;;;;;;5047825;28;20392;-72
2022/05/05 06:05:07;;;;;;;13.02;9.45;;;8.30;99.90;;;;;;5072994;28;20052;-72
2022/05/05 06:07:32;;;;;;;14.55;9.23;;;8.30;99.90;;;;;;5056721;28;20116;-71
2022/05/05 06:09:58;;;;;;;17.17;9.68;;;8.40;99.90;;;;;;5046873;28;20065;-72
2022/05/05 06:12:24;;;;;;;14.48;9.05;;;8.40;99.90;;;;;;5034359;28;20034;-72
2022/05/05 06:14:49;;;;;;;12.60;9.00;;;8.60;99.90;;;;;;5033365;28;20087;-72
2022/05/05 06:17:15;;;;;;;16.23;9.25;;;8.70;99.90;;;;;;5034447;28;20042;-72
2022/05/05 06:19:43;;;;;;;12.82;9.25;;;8.70;99.90;;;;;;5034441;28;20033;-72
2022/05/05 06:22:09;;;;;;;16.20;8.82;;;8.90;99.90;;;;;;5034245;28;20056;-72
2022/05/05 06:24:34;;;;;;;13.50;7.97;;;9.10;99.90;;;;;;5034292;28;20405;-72
2022/05/05 06:27:00;;;;;;;13.88;8.07;;;9.20;99.90;;;;;;5046948;28;20449;-72
2022/05/05 06:29:25;;;;;;;14.50;8.32;;;9.10;99.90;;;;;;5050808;28;20060;-72
2022/05/05 06:31:51;;;;;;;13.23;8.82;;;9.20;99.90;;;;;;5034248;28;20064;-72
2022/05/05 06:34:16;;;;;;;14.85;9.43;;;9.20;99.90;;;;;;5050737;28;20064;-72
2022/05/05 06:36:42;;;;;;;12.70;8.73;;;9.20;99.90;;;;;;5034361;28;20131;-72
2022/05/05 06:39:08;;;;;;;14.55;8.65;;;9.20;99.90;;;;;;5034042;28;20045;-72
2022/05/05 06:41:34;;;;;;;16.60;9.50;;;9.30;99.90;;;;;;5047895;28;20044;-72
2022/05/05 06:43:59;;;;;;;14.73;9.32;;;9.20;99.90;;;;;;5033519;28;20040;-72
2022/05/05 06:46:25;;;;;;;14.55;8.68;;;9.30;99.90;;;;;;5050648;28;20034;-72
2022/05/05 06:48:51;;;;;;;12.45;7.63;;;9.30;99.90;;;;;;5050516;28;20505;-72
2022/05/05 06:51:17;;;;;;;12.65;6.93;;;9.50;99.90;;;;;;5050325;28;20049;-72
2022/05/05 06:53:42;;;;;;;13.15;7.05;;;9.60;99.90;;;;;;5050290;28;20037;-72
2022/05/05 06:56:08;;;;;;;16.35;7.90;;;9.90;99.90;;;;;;5064145;28;20124;-72
2022/05/05 06:58:33;;;;;;;15.50;8.15;;;9.90;99.90;;;;;;5061592;28;20033;-72
2022/05/05 07:03:43;;;;;;;14.57;8.07;;;9.80;99.90;;;;;;5053479;28;20037;-72
2022/05/05 07:06:10;;;;;;;14.63;7.97;;;9.90;99.90;;;;;;5053748;28;20041;-72
2022/05/05 07:11:23;;;;;;;17.48;8.38;;;10.00;99.90;;;;;;5053357;28;20045;-72
2022/05/05 07:13:49;;;;;;;12.35;7.55;;;10.00;99.90;;;;;;5069921;28;20044;-72
2022/05/05 07:16:15;;;;;;;12.48;8.32;;;10.00;99.90;;;;;;5046380;28;20041;-72
2022/05/05 07:18:41;;;;;;;15.18;7.97;;;10.20;99.90;;;;;;5049907;28;20045;-72
2022/05/05 07:21:06;;;;;;;13.63;8.00;;;10.20;99.90;;;;;;5049800;28;20521;-73
2022/05/05 07:23:32;;;;;;;14.30;8.50;;;10.20;99.90;;;;;;5049780;28;20033;-72
2022/05/05 07:25:58;;;;;;;15.13;8.65;;;10.30;99.90;;;;;;5033043;28;20040;-72
2022/05/05 07:28:23;;;;;;;15.93;8.40;;;10.40;99.90;;;;;;5016480;28;20034;-72
2022/05/05 07:30:51;;;;;;;13.55;7.88;;;10.40;99.90;;;;;;5049713;28;20051;-72
2022/05/05 07:33:16;;;;;;;13.45;7.88;;;10.40;99.90;;;;;;5016524;28;20508;-72
2022/05/05 07:35:42;;;;;;;14.75;8.05;;;10.50;99.90;;;;;;5015995;28;20057;-72
2022/05/05 07:38:07;;;;;;;16.00;7.65;;;10.50;99.90;;;;;;5049155;28;20045;-72
2022/05/05 07:40:33;;;;;;;12.82;7.45;;;10.60;99.90;;;;;;5049341;28;20052;-72
2022/05/05 07:42:59;;;;;;;15.15;7.82;;;10.70;99.90;;;;;;5029826;28;20042;-73
2022/05/05 07:45:24;;;;;;;13.88;7.38;;;10.80;99.90;;;;;;5040506;28;20029;-72
2022/05/05 07:47:50;;;;;;;13.48;7.00;;;10.90;99.90;;;;;;5053289;28;20090;-73
2022/05/05 07:50:16;;;;;;;14.95;7.30;;;11.00;99.90;;;;;;5036101;28;20374;-80
2022/05/05 07:52:41;;;;;;;13.13;6.88;;;11.20;99.90;;;;;;5052553;28;20041;-73
2022/05/05 07:55:08;;;;;;;11.63;5.78;;;11.50;99.90;;;;;;5034859;28;20044;-73
2022/05/05 07:57:46;;;;;;;11.50;5.80;;;11.70;99.90;;;;;;5052536;28;20033;-73
2022/05/05 08:00:13;;;;;;;9.70;5.82;;;11.80;99.90;;;;;;5042370;28;20053;-73
2022/05/05 08:02:39;;;;;;;14.27;5.85;;;11.90;99.90;;;;;;5051769;28;20036;-73
2022/05/05 08:05:05;;;;;;;14.68;6.20;;;12.20;99.90;;;;;;5034952;28;20129;-73
2022/05/05 08:07:31;;;;;;;12.27;5.20;;;12.30;99.90;;;;;;5052557;28;20393;-73
2022/05/05 08:09:56;;;;;;;12.35;4.97;;;12.50;99.90;;;;;;5035221;28;20043;-73
2022/05/05 08:12:22;;;;;;;10.88;5.00;;;12.80;99.90;;;;;;5052119;28;20102;-73
2022/05/05 08:14:48;;;;;;;10.40;5.10;;;12.70;99.90;;;;;;5050897;28;20481;-73
2022/05/05 08:17:14;;;;;;;10.27;4.70;;;12.70;99.90;;;;;;5040671;28;20095;-73
2022/05/05 08:19:39;;;;;;;12.27;4.30;;;12.80;99.90;;;;;;5032014;28;20033;-73
2022/05/05 08:22:05;;;;;;;10.35;4.95;;;12.90;99.90;;;;;;5031304;28;20037;-73
2022/05/05 08:30:02;;;;;;;12.00;5.03;;;13.00;99.90;;;;;;5051145;28;20405;-73
2022/05/05 08:32:29;;;;;;;8.88;4.65;;;13.10;99.90;;;;;;5051558;28;20033;-73
2022/05/05 08:34:55;;;;;;;11.65;4.85;;;13.10;99.90;;;;;;5029658;28;20080;-73
2022/05/05 08:37:20;;;;;;;9.40;4.90;;;13.20;99.90;;;;;;5033945;28;20130;-73
2022/05/05 08:39:46;;;;;;;10.55;4.80;;;13.30;99.90;;;;;;5051265;28;20040;-73
2022/05/05 08:42:11;;;;;;;8.25;4.25;;;13.30;99.90;;;;;;5051035;28;20500;-73
2022/05/05 08:44:37;;;;;;;9.38;4.05;;;13.60;99.90;;;;;;5049096;28;20072;-73
2022/05/05 08:47:06;;;;;;;9.60;4.55;;;13.60;99.90;;;;;;5034378;28;20116;-73
2022/05/05 08:49:35;;;;;;;9.40;4.60;;;13.60;99.90;;;;;;5050434;28;20558;-73
2022/05/05 08:52:05;;;;;;;10.75;4.68;;;13.60;99.90;;;;;;5032609;28;20485;-73
2022/05/05 08:54:32;;;;;;;10.35;5.40;;;13.70;99.90;;;;;;5049327;28;20079;-73
2022/05/05 08:56:58;;;;;;;10.38;4.25;;;13.60;99.90;;;;;;5050575;28;20037;-73
2022/05/05 08:59:25;;;;;;;10.52;4.68;;;13.70;99.90;;;;;;5066854;28;20048;-73
2022/05/05 09:01:51;;;;;;;9.93;4.93;;;13.80;99.90;;;;;;5060454;28;20412;-73
2022/05/05 09:04:18;;;;;;;10.82;5.25;;;13.90;99.90;;;;;;5050537;28;20120;-73
2022/05/05 09:06:48;;;;;;;10.05;4.90;;;14.00;99.90;;;;;;5050975;28;20132;-72
2022/05/05 09:09:23;;;;;;;11.30;5.47;;;13.90;99.90;;;;;;5060709;28;20033;-73
2022/05/05 09:12:12;;;;;;;12.05;5.15;;;14.00;99.90;;;;;;5049821;28;20053;-73
2022/05/05 09:14:44;;;;;;;12.77;5.00;;;13.90;99.90;;;;;;5051139;28;20056;-73
2022/05/05 09:17:13;;;;;;;9.57;4.70;;;14.00;99.90;;;;;;5050584;28;20045;-73
2022/05/05 09:19:40;;;;;;;12.32;5.47;;;14.20;99.90;;;;;;5047928;28;20037;-73
2022/05/05 09:22:07;;;;;;;11.95;5.50;;;14.30;99.90;;;;;;5050582;28;20090;-73
2022/05/05 09:24:36;;;;;;;11.30;4.82;;;14.40;99.90;;;;;;5034533;28;20045;-73
2022/05/05 09:27:14;;;;;;;12.30;5.28;;;14.50;99.90;;;;;;5050612;28;20059;-73
2022/05/05 09:29:39;;;;;;;10.23;4.47;;;14.50;99.90;;;;;;5049191;28;20037;-73
2022/05/05 09:32:12;;;;;;;10.35;4.72;;;14.80;99.90;;;;;;5050803;28;20047;-73
2022/05/05 09:34:41;;;;;;;8.48;4.72;;;14.90;99.90;;;;;;5066683;28;20053;-73
2022/05/05 09:37:19;;;;;;;9.23;4.32;;;15.00;99.90;;;;;;5047621;28;20555;-73
2022/05/05 09:39:45;;;;;;;10.35;4.85;;;14.90;99.90;;;;;;5049597;28;20037;-73
2022/05/05 09:42:11;;;;;;;11.20;4.88;;;14.90;99.90;;;;;;5049537;28;20127;-73
2022/05/05 09:44:52;;;;;;;10.95;4.60;;;15.00;99.30;;;;;;5051502;28;20064;-73
2022/05/05 09:47:21;;;;;;;9.70;5.20;;;15.00;99.90;;;;;;5049296;28;20044;-73
2022/05/05 09:50:06;;;;;;;10.00;4.65;;;15.10;99.90;;;;;;5045471;28;20116;-73
2022/05/05 09:58:09;;;;;;;10.55;5.25;;;15.40;99.50;;;;;;5033623;28;20045;-73
2022/05/05 10:00:45;;;;;;;9.38;4.68;;;15.50;98.50;;;;;;5047508;28;20036;-73
2022/05/05 10:06:02;;;;;;;10.00;4.75;;;15.50;97.40;;;;;;5051243;28;20048;-73
2022/05/05 10:08:42;;;;;;;12.90;5.30;;;15.60;98.30;;;;;;5053526;28;20064;-73
2022/05/05 10:11:08;;;;;;;11.43;5.43;;;15.60;96.30;;;;;;5031326;28;20076;-73
2022/05/05 10:13:37;;;;;;;11.27;5.10;;;15.40;95.10;;;;;;5055412;28;20114;-73
2022/05/05 10:16:05;;;;;;;11.77;5.25;;;15.60;98.50;;;;;;5055328;28;20032;-73
2022/05/05 10:18:38;;;;;;;8.85;4.95;;;15.70;96.20;;;;;;5040281;28;20119;-73
2022/05/05 10:21:07;;;;;;;11.27;4.95;;;15.90;98.40;;;;;;5050809;28;20072;-73
2022/05/05 10:23:49;;;;;;;10.52;4.75;;;16.00;97.50;;;;;;5033547;28;20040;-73
2022/05/05 10:26:23;;;;;;;10.88;4.85;;;15.90;97.50;;;;;;5050148;28;20393;-73
2022/05/05 10:28:49;;;;;;;9.93;5.43;;;16.10;98.00;;;;;;5050633;28;20048;-73
2022/05/05 10:31:30;;;;;;;11.02;4.55;;;16.00;97.00;;;;;;5046607;28;20382;-73
2022/05/05 10:34:07;;;;;;;7.97;4.68;;;16.10;98.30;;;;;;5052232;28;20059;-73
2022/05/05 10:36:34;;;;;;;11.27;5.10;;;16.20;98.80;;;;;;5038819;28;20497;-73
2022/05/05 10:39:19;;;;;;;8.68;4.60;;;16.10;95.60;;;;;;5053588;28;20393;-73
2022/05/05 10:41:45;;;;;;;9.68;5.18;;;16.30;97.90;;;;;;5050291;28;20044;-73
2022/05/05 10:44:20;;;;;;;8.75;5.10;;;16.30;97.10;;;;;;5028319;28;20029;-73
2022/05/05 10:46:59;;;;;;;9.52;4.35;;;16.30;97.70;;;;;;5044908;28;20370;-73
2022/05/05 10:49:30;;;;;;;8.68;4.85;;;16.40;97.70;;;;;;5052225;28;20081;-73
2022/05/05 10:52:08;;;;;;;7.88;4.00;;;16.40;95.60;;;;;;5036842;28;20045;-73
2022/05/05 10:54:34;;;;;;;7.72;4.00;;;16.50;97.40;;;;;;5032036;28;20045;-78
2022/05/05 10:57:25;;;;;;;8.48;4.80;;;16.70;95.80;;;;;;5035298;28;20048;-74
2022/05/05 11:00:13;;;;;;;7.53;3.92;;;16.60;97.10;;;;;;5049842;28;20049;-73
2022/05/05 11:03:01;;;;;;;8.65;4.82;;;16.60;96.80;;;;;;5038642;28;20044;-73
2022/05/05 11:05:31;;;;;;;8.10;4.97;;;16.60;96.60;;;;;;5033455;28;20461;-73
2022/05/05 11:08:07;;;;;;;8.70;4.63;;;16.60;94.90;;;;;;5059502;28;20052;-73
2022/05/05 11:13:43;;;;;;;7.43;3.88;;;16.70;96.00;;;;;;5050321;28;20041;-74
2022/05/05 11:22:17;;;;;;;10.57;5.13;;;16.90;95.00;;;;;;5051376;28;20053;-74
2022/05/05 11:24:46;;;;;;;9.10;5.40;;;17.00;95.70;;;;;;5034337;28;20033;-74
2022/05/05 11:27:17;;;;;;;7.10;3.60;;;17.00;90.50;;;;;;5050823;28;20068;-74
2022/05/05 11:29:57;;;;;;;6.95;3.90;;;16.90;89.80;;;;;;5036255;28;20116;-74
2022/05/05 11:32:32;;;;;;;9.45;5.32;;;17.00;94.10;;;;;;5052609;28;20531;-74
2022/05/05 11:34:59;;;;;;;9.65;5.30;;;17.20;93.90;;;;;;5047522;28;20137;-74
2022/05/05 11:37:29;;;;;;;11.43;6.38;;;17.30;91.60;;;;;;5032157;28;20057;-74
2022/05/05 11:39:56;;;;;;;8.38;5.07;;;17.10;91.50;;;;;;5051290;28;20492;-74
2022/05/05 11:42:21;;;;;;;10.07;4.47;;;17.10;92.10;;;;;;5052186;28;20128;-74
2022/05/05 11:44:48;;;;;;;9.40;5.15;;;17.20;91.10;;;;;;5035551;28;20090;-74
2022/05/05 11:47:18;;;;;;;10.70;5.90;;;17.10;91.70;;;;;;5051498;28;20045;-74
2022/05/05 11:49:48;;;;;;;11.65;6.70;;;17.10;96.00;;;;;;5049440;28;20041;-74
2022/05/05 11:52:22;;;;;;;11.38;6.32;;;17.20;96.30;;;;;;5048330;28;20069;-74
2022/05/05 11:54:55;;;;;;;10.25;6.50;;;17.10;94.40;;;;;;5051709;28;20045;-74
2022/05/05 11:57:30;;;;;;;12.20;5.97;;;17.30;95.80;;;;;;5034943;28;20041;-74
2022/05/05 12:02:40;;;;;;;11.35;6.20;;;17.50;91.60;;;;;;5050570;28;20493;-74
2022/05/05 12:05:08;;;;;;;10.20;5.63;;;17.40;91.90;;;;;;5050848;28;20036;-74
2022/05/05 12:07:34;;;;;;;9.95;5.90;;;17.40;92.60;;;;;;5051740;28;20090;-74
2022/05/05 12:10:06;;;;;;;9.15;5.70;;;17.50;92.20;;;;;;5039501;28;20138;-74
2022/05/05 12:12:32;;;;;;;11.00;7.43;;;17.50;91.20;;;;;;5043597;28;20067;-74
2022/05/05 12:15:00;;;;;;;11.80;6.18;;;17.50;90.10;;;;;;5033650;28;20037;-74
2022/05/05 12:17:33;;;;;;;11.80;7.10;;;17.50;91.30;;;;;;5050136;28;20041;-74
2022/05/05 12:20:03;;;;;;;14.73;6.78;;;17.40;90.50;;;;;;5036714;28;20044;-74
2022/05/05 12:22:30;;;;;;;10.23;5.90;;;17.40;91.30;;;;;;5051388;28;20044;-74
2022/05/05 12:25:05;;;;;;;9.95;6.50;;;17.50;93.40;;;;;;5050478;28;20082;-74
2022/05/05 12:27:30;;;;;;;11.20;6.22;;;17.60;94.40;;;;;;5050733;28;20040;-74
2022/05/05 12:29:56;;;;;;;12.60;6.57;;;17.60;94.80;;;;;;5049969;28;20041;-74
2022/05/05 12:32:22;;;;;;;10.27;6.47;;;17.80;93.30;;;;;;5051132;28;20448;-75
2022/05/05 12:34:48;;;;;;;11.18;6.95;;;17.90;93.60;;;;;;5050536;28;20084;-74
2022/05/05 12:37:20;;;;;;;11.40;6.38;;;17.80;93.10;;;;;;5050791;28;20124;-75
2022/05/05 12:40:02;;;;;;;12.00;5.97;;;17.80;93.00;;;;;;5042945;28;20558;-76
2022/05/05 12:42:58;;;;;;;10.00;5.35;;;17.90;90.10;;;;;;5047328;28;20112;-75
2022/05/05 12:45:26;;;;;;;9.90;6.00;;;18.00;90.20;;;;;;5031553;28;20041;-75
2022/05/05 12:47:53;;;;;;;10.85;5.90;;;18.00;91.30;;;;;;5030858;28;20493;-75
2022/05/05 12:50:40;;;;;;;12.98;5.82;;;18.10;90.20;;;;;;5044616;28;20041;-73
2022/05/05 13:01:24;;;;;;;8.13;5.18;;;18.10;92.20;;;;;;5035829;28;20386;-73
2022/05/05 13:03:53;;;;;;;9.43;5.43;;;18.10;90.80;;;;;;5039835;28;20562;-73
2022/05/05 13:06:19;;;;;;;10.40;6.28;;;18.20;86.80;;;;;;5050265;28;20523;-73
2022/05/05 13:08:46;;;;;;;10.40;6.22;;;18.00;90.80;;;;;;5050970;28;20065;-73
2022/05/05 13:11:13;;;;;;;10.90;5.90;;;17.90;87.30;;;;;;5048871;28;20047;-73
2022/05/05 13:13:39;;;;;;;10.75;5.90;;;18.00;90.50;;;;;;5049478;28;20070;-73
2022/05/05 13:16:05;;;;;;;10.55;5.55;;;18.00;91.30;;;;;;5050211;28;20485;-73
2022/05/05 13:18:30;;;;;;;8.90;5.13;;;17.90;92.30;;;;;;5025980;28;21695;-73
2022/05/05 13:20:56;;;;;;;8.75;5.13;;;18.00;93.30;;;;;;5067280;28;20048;-73
2022/05/05 13:23:21;;;;;;;9.13;5.20;;;18.00;91.30;;;;;;5049065;28;20037;-73
2022/05/05 13:25:47;;;;;;;11.07;4.72;;;18.00;86.70;;;;;;5051733;28;20041;-73
2022/05/05 13:28:13;;;;;;;9.65;4.93;;;18.00;85.40;;;;;;5036185;28;20485;-73
2022/05/05 13:30:39;;;;;;;11.35;6.20;;;18.00;89.90;;;;;;5055232;28;20041;-73
2022/05/05 13:33:04;;;;;;;9.13;4.85;;;18.00;91.50;;;;;;5037456;28;20123;-73
2022/05/05 13:35:30;;;;;;;9.45;5.00;;;17.90;90.90;;;;;;5031225;28;20061;-73
2022/05/05 13:37:58;;;;;;;10.10;5.15;;;18.00;86.70;;;;;;5037752;28;20040;-73
2022/05/05 13:40:25;;;;;;;8.45;5.07;;;18.00;86.90;;;;;;5038551;28;20033;-73
2022/05/05 13:42:50;;;;;;;10.50;6.00;;;17.90;92.00;;;;;;5054787;28;20436;-73